createdAt,value
2022-11-25T00:00:54.681Z,100502.16015625
2022-11-25T00:01:55.063Z,100501.40234375
2022-11-25T00:02:54.832Z,100503.1875
2022-11-25T00:03:55.182Z,100503.0234375
2022-11-25T00:04:54.853Z,100505.375
2022-11-25T00:05:54.782Z,100506.83203125
2022-11-25T00:06:55.108Z,100509.4453125
2022-11-25T00:07:54.920Z,100508.09765625
2022-11-25T00:08:57.676Z,100506.265625
2022-11-25T00:09:54.885Z,100503.4375
2022-11-25T00:10:54.804Z,100506.3203125
2022-11-25T00:11:55.238Z,100506.33203125
2022-11-25T00:12:54.765Z,100508.81640625
2022-11-25T00:13:54.702Z,100509.25390625
2022-11-25T00:14:54.676Z,100508.1015625
2022-11-25T00:15:54.658Z,100510.3125
2022-11-25T00:16:55.204Z,100507.1328125
2022-11-25T00:17:54.751Z,100505.54296875
2022-11-25T00:18:55.146Z,100510.1171875
2022-11-25T00:19:57.675Z,100505.4609375
2022-11-25T00:20:54.791Z,100502.16796875
2022-11-25T00:21:54.668Z,100501.015625
2022-11-25T00:22:54.794Z,100499.1796875
2022-11-25T00:23:54.654Z,100488.59765625
2022-11-25T00:24:54.670Z,100488.7109375
2022-11-25T00:25:54.770Z,100490.046875
2022-11-25T00:26:54.662Z,100490.6015625
2022-11-25T00:27:54.678Z,100487.30859375
2022-11-25T00:28:54.661Z,100486.35546875
2022-11-25T00:29:54.661Z,100487.80078125
2022-11-25T00:30:57.686Z,100490.375
2022-11-25T00:31:54.843Z,100493.734375
2022-11-25T00:32:55.218Z,100493.60546875
2022-11-25T00:33:55.321Z,100494.02734375
2022-11-25T00:34:54.676Z,100495.265625
2022-11-25T00:35:54.662Z,100493
2022-11-25T00:36:54.673Z,100494.05859375
2022-11-25T00:37:55.099Z,100493.93359375
2022-11-25T00:38:54.749Z,100494.609375
2022-11-25T00:39:54.815Z,100492.59765625
2022-11-25T00:40:54.732Z,100495.17578125
2022-11-25T00:41:57.855Z,100494.6484375
2022-11-25T00:42:55.076Z,100497.0703125
2022-11-25T00:43:54.742Z,100495.8203125
2022-11-25T00:44:54.761Z,100500.57421875
2022-11-25T00:45:54.848Z,100499.80859375
2022-11-25T00:46:54.671Z,100499.875
2022-11-25T00:47:54.701Z,100497.5234375
2022-11-25T00:48:55.093Z,100497.0234375
2022-11-25T00:49:55.039Z,100497.4609375
2022-11-25T00:50:54.907Z,100495.40234375
2022-11-25T00:51:54.760Z,100495.94140625
2022-11-25T00:53:00.782Z,100498.40625
2022-11-25T00:53:58.720Z,100499.59375
2022-11-25T00:54:54.773Z,100503.33984375
2022-11-25T00:55:54.827Z,100498.41015625
2022-11-25T00:56:54.741Z,100500.6171875
2022-11-25T00:57:55.120Z,100496.87109375
2022-11-25T00:58:54.768Z,100489.72265625
2022-11-25T00:59:54.674Z,100492.72265625
2022-11-25T01:00:54.701Z,100488.796875
2022-11-25T01:01:54.739Z,100489.57421875
2022-11-25T01:02:55.152Z,100486.18359375
2022-11-25T01:03:57.673Z,100491.23046875
2022-11-25T01:04:55.029Z,100487.17578125
2022-11-25T01:05:54.753Z,100486.7890625
2022-11-25T01:06:54.684Z,100486.73828125
2022-11-25T01:07:54.728Z,100488.9765625
2022-11-25T01:08:54.692Z,100487.82421875
2022-11-25T01:09:54.769Z,100489.46484375
2022-11-25T01:10:54.658Z,100490.16015625
2022-11-25T01:11:54.652Z,100489.4453125
2022-11-25T01:12:55.100Z,100486.98046875
2022-11-25T01:14:00.657Z,100487.35546875
2022-11-25T01:14:57.674Z,100489.66015625
2022-11-25T01:15:54.734Z,100490.7734375
2022-11-25T01:16:54.776Z,100489.78515625
2022-11-25T01:17:55.149Z,100491.33984375
2022-11-25T01:18:54.730Z,100495.48046875
2022-11-25T01:19:55.098Z,100500.515625
2022-11-25T01:20:54.827Z,100502.4140625
2022-11-25T01:21:54.674Z,100499.4453125
2022-11-25T01:22:55.070Z,100506.90234375
2022-11-25T01:23:54.894Z,100509.609375
2022-11-25T01:24:54.669Z,100507.34375
2022-11-25T01:25:57.684Z,100510.390625
2022-11-25T01:26:55.038Z,100508.6796875
2022-11-25T01:27:55.031Z,100511
2022-11-25T01:28:54.744Z,100507.82421875
2022-11-25T01:29:54.678Z,100510.0625
2022-11-25T01:30:54.650Z,100511.671875
2022-11-25T01:31:54.844Z,100513.4765625
2022-11-25T01:32:55.104Z,100517.18359375
2022-11-25T01:33:54.775Z,100517.98046875
2022-11-25T01:34:55.102Z,100516.28125
2022-11-25T01:35:54.767Z,100515.984375
2022-11-25T01:36:57.668Z,100512.1640625
2022-11-25T01:37:54.767Z,100511.84765625
2022-11-25T01:38:54.782Z,100508.2421875
2022-11-25T01:39:54.671Z,100504.54296875
2022-11-25T01:40:54.760Z,100504.81640625
2022-11-25T01:41:54.723Z,100505.43359375
2022-11-25T01:42:54.785Z,100507.13671875
2022-11-25T01:43:54.664Z,100506.28125
2022-11-25T01:44:54.670Z,100505.7421875
2022-11-25T01:45:54.678Z,100508.77734375
2022-11-25T01:46:54.658Z,100504.98046875
2022-11-25T01:48:00.748Z,100507.9921875
2022-11-25T01:48:54.837Z,100505.69140625
2022-11-25T01:49:55.096Z,100504.69921875
2022-11-25T01:50:54.734Z,100507.328125
2022-11-25T01:51:54.671Z,100501.01953125
2022-11-25T01:52:54.792Z,100502.65234375
2022-11-25T01:53:54.674Z,100504.55078125
2022-11-25T01:54:54.786Z,100503.9296875
2022-11-25T01:55:54.672Z,100501.05859375
2022-11-25T01:56:54.677Z,100504.6953125
2022-11-25T01:57:55.100Z,100503.35546875
2022-11-25T01:58:57.672Z,100503.69140625
2022-11-25T01:59:54.758Z,100500.91796875
2022-11-25T02:00:54.827Z,100500.81640625
2022-11-25T02:01:54.705Z,100499.13671875
2022-11-25T02:02:55.098Z,100496.578125
2022-11-25T02:03:54.783Z,100497.46875
2022-11-25T02:04:55.017Z,100497.18359375
2022-11-25T02:05:54.682Z,100498.484375
2022-11-25T02:06:54.671Z,100502.6171875
2022-11-25T02:07:54.786Z,100504.12890625
2022-11-25T02:08:54.739Z,100499.7265625
2022-11-25T02:09:57.669Z,100500.11328125
2022-11-25T02:10:54.742Z,100502.48046875
2022-11-25T02:11:54.652Z,100505.0078125
2022-11-25T02:12:55.110Z,100499.6328125
2022-11-25T02:13:54.763Z,100494.00390625
2022-11-25T02:14:54.668Z,100497.390625
2022-11-25T02:15:54.686Z,100495.98828125
2022-11-25T02:16:54.732Z,100499.12890625
2022-11-25T02:17:55.102Z,100495.828125
2022-11-25T02:18:54.749Z,100499.03125
2022-11-25T02:19:55.095Z,100497.2890625
2022-11-25T02:20:57.625Z,100498.37890625
2022-11-25T02:21:54.727Z,100499.73046875
2022-11-25T02:22:54.738Z,100497.39453125
2022-11-25T02:23:54.672Z,100497.625
2022-11-25T02:24:54.793Z,100500.703125
2022-11-25T02:25:54.738Z,100500.95703125
2022-11-25T02:26:54.655Z,100503.0546875
2022-11-25T02:27:55.125Z,100500.99609375
2022-11-25T02:28:54.736Z,100499.359375
2022-11-25T02:29:54.753Z,100502.5546875
2022-11-25T02:30:54.751Z,100500.0078125
2022-11-25T02:31:54.701Z,100499.359375
2022-11-25T02:32:55.032Z,100498.24609375
2022-11-25T02:33:54.772Z,100493.0390625
2022-11-25T02:34:55.182Z,100493.9765625
2022-11-25T02:35:54.676Z,100492.76171875
2022-11-25T02:36:57.695Z,100491.8359375
2022-11-25T02:37:54.831Z,100492.4296875
2022-11-25T02:38:54.772Z,100493.6015625
2022-11-25T02:39:54.770Z,100488.28125
2022-11-25T02:40:54.673Z,100488.33984375
2022-11-25T02:41:54.651Z,100486.453125
2022-11-25T02:42:54.681Z,100488.3671875
2022-11-25T02:43:54.678Z,100482.93359375
2022-11-25T02:44:54.737Z,100484.75
2022-11-25T02:45:54.879Z,100483.875
2022-11-25T02:46:54.738Z,100482.09375
2022-11-25T02:48:00.755Z,100481.375
2022-11-25T02:49:09.009Z,100483.421875
2022-11-25T02:49:55.105Z,100482.91015625
2022-11-25T02:50:54.742Z,100482.30859375
2022-11-25T02:51:54.652Z,100485.71484375
2022-11-25T02:52:54.784Z,100480.59375
2022-11-25T02:53:54.657Z,100482.0625
2022-11-25T02:54:54.668Z,100487.37890625
2022-11-25T02:55:54.672Z,100485.66015625
2022-11-25T02:56:54.660Z,100484.046875
2022-11-25T02:57:55.162Z,100485.2890625
2022-11-25T02:58:57.676Z,100483.296875
2022-11-25T02:59:54.703Z,100482.9140625
2022-11-25T03:00:54.835Z,100479.078125
2022-11-25T03:01:54.849Z,100479.625
2022-11-25T03:02:55.113Z,100476.23046875
2022-11-25T03:03:54.763Z,100476.8828125
2022-11-25T03:04:55.062Z,100476.84765625
2022-11-25T03:05:54.667Z,100473.21484375
2022-11-25T03:06:54.743Z,100473.2578125
2022-11-25T03:07:55.194Z,100476.40234375
2022-11-25T03:08:54.750Z,100471.5078125
2022-11-25T03:09:57.681Z,100473.60546875
2022-11-25T03:10:54.749Z,100471.34765625
2022-11-25T03:11:54.661Z,100474.26953125
2022-11-25T03:12:55.148Z,100473.17578125
2022-11-25T03:13:54.775Z,100473.84765625
2022-11-25T03:14:54.768Z,100477.65625
2022-11-25T03:15:54.676Z,100482.01953125
2022-11-25T03:16:54.767Z,100482.890625
2022-11-25T03:17:55.151Z,100489.28515625
2022-11-25T03:18:54.857Z,100484.60546875
2022-11-25T03:19:55.145Z,100489.83984375
2022-11-25T03:20:57.739Z,100493.26171875
2022-11-25T03:21:54.747Z,100495.19921875
2022-11-25T03:22:54.659Z,100493.62890625
2022-11-25T03:23:54.651Z,100496.95703125
2022-11-25T03:24:54.660Z,100497.234375
2022-11-25T03:25:54.648Z,100496.953125
2022-11-25T03:26:54.674Z,100496.1796875
2022-11-25T03:27:55.109Z,100496.6640625
2022-11-25T03:28:54.776Z,100499.0859375
2022-11-25T03:29:54.788Z,100495.37890625
2022-11-25T03:30:54.775Z,100495.171875
2022-11-25T03:31:57.713Z,100493.23828125
2022-11-25T03:32:55.045Z,100488.40625
2022-11-25T03:33:54.852Z,100484.51953125
2022-11-25T03:34:55.095Z,100486.8515625
2022-11-25T03:35:54.773Z,100483.046875
2022-11-25T03:36:54.827Z,100482.18359375
2022-11-25T03:37:54.689Z,100485.48828125
2022-11-25T03:38:54.677Z,100483.9921875
2022-11-25T03:39:54.718Z,100482.3515625
2022-11-25T03:40:54.807Z,100480.40625
2022-11-25T03:41:54.747Z,100481.44140625
2022-11-25T03:42:57.808Z,100484.890625
2022-11-25T03:43:54.757Z,100489.76171875
2022-11-25T03:44:54.637Z,100485.0234375
2022-11-25T03:45:54.709Z,100484.1953125
2022-11-25T03:46:54.781Z,100492.16796875
2022-11-25T03:47:55.095Z,100495.3515625
2022-11-25T03:48:54.669Z,100494.75
2022-11-25T03:49:55.151Z,100493.63671875
2022-11-25T03:50:54.739Z,100492.8359375
2022-11-25T03:51:54.669Z,100491.41015625
2022-11-25T03:52:54.833Z,100490.15625
2022-11-25T03:53:57.668Z,100489.5
2022-11-25T03:54:54.759Z,100487.79296875
2022-11-25T03:55:54.666Z,100487.44140625
2022-11-25T03:56:54.676Z,100486.0546875
2022-11-25T03:57:55.102Z,100482.3828125
2022-11-25T03:58:54.774Z,100481.98828125
2022-11-25T03:59:54.723Z,100479.328125
2022-11-25T04:00:54.737Z,100474.51953125
2022-11-25T04:01:54.802Z,100476.49609375
2022-11-25T04:02:55.181Z,100473.9296875
2022-11-25T04:03:54.765Z,100473.26953125
2022-11-25T04:04:58.054Z,100472.6015625
2022-11-25T04:05:54.732Z,100477.55859375
2022-11-25T04:06:54.677Z,100473.8515625
2022-11-25T04:07:57.740Z,100474.7265625
2022-11-25T04:08:54.786Z,100468.73046875
2022-11-25T04:09:54.650Z,100470.73828125
2022-11-25T04:10:54.670Z,100474.7109375
2022-11-25T04:11:54.642Z,100478.109375
2022-11-25T04:12:55.103Z,100476.64453125
2022-11-25T04:13:54.969Z,100477.828125
2022-11-25T04:14:54.746Z,100481.86328125
2022-11-25T04:15:57.708Z,100480.11328125
2022-11-25T04:16:54.909Z,100480.4921875
2022-11-25T04:17:55.030Z,100478.99609375
2022-11-25T04:18:54.669Z,100478.89453125
2022-11-25T04:19:55.098Z,100477.6015625
2022-11-25T04:20:54.750Z,100476.69921875
2022-11-25T04:21:54.657Z,100476.25
2022-11-25T04:22:54.696Z,100476.12109375
2022-11-25T04:23:54.660Z,100477.54296875
2022-11-25T04:24:54.658Z,100477.1171875
2022-11-25T04:25:54.661Z,100474.6875
2022-11-25T04:26:57.677Z,100473.609375
2022-11-25T04:27:54.744Z,100475.16796875
2022-11-25T04:28:54.666Z,100473.90234375
2022-11-25T04:29:54.672Z,100476.51953125
2022-11-25T04:30:54.699Z,100477.38671875
2022-11-25T04:31:54.667Z,100476.7890625
2022-11-25T04:32:55.059Z,100473.32421875
2022-11-25T04:33:54.681Z,100477.125
2022-11-25T04:34:55.119Z,100475.9921875
2022-11-25T04:35:54.743Z,100474.10546875
2022-11-25T04:36:54.752Z,100477.24609375
2022-11-25T04:37:57.673Z,100476.37109375
2022-11-25T04:38:54.669Z,100475.03125
2022-11-25T04:39:54.674Z,100476.95703125
2022-11-25T04:40:54.731Z,100476.015625
2022-11-25T04:41:54.649Z,100478.09765625
2022-11-25T04:43:01.547Z,100477.6875
2022-11-25T04:43:54.781Z,100479.5390625
2022-11-25T04:45:14.450Z,100481.82421875
2022-11-25T04:46:14.321Z,100480.921875
2022-11-25T04:46:54.750Z,100476.80859375
2022-11-25T04:47:55.111Z,100473.24609375
2022-11-25T04:48:57.708Z,100476.109375
2022-11-25T04:49:54.892Z,100475.80078125
2022-11-25T04:50:54.674Z,100475.890625
2022-11-25T04:51:54.667Z,100476.0234375
2022-11-25T04:52:54.769Z,100474.109375
2022-11-25T04:53:54.671Z,100472.81640625
2022-11-25T04:54:54.665Z,100474.65234375
2022-11-25T04:55:54.673Z,100471.62109375
2022-11-25T04:56:54.686Z,100470.8125
2022-11-25T04:57:55.097Z,100468.99609375
2022-11-25T04:58:54.742Z,100466.76171875
2022-11-25T04:59:57.738Z,100468.71484375
2022-11-25T05:00:54.827Z,100468.9140625
2022-11-25T05:01:54.676Z,100466.8515625
2022-11-25T05:02:55.159Z,100470.90234375
2022-11-25T05:03:57.644Z,100465.9140625
2022-11-25T05:04:55.160Z,100465.05078125
2022-11-25T05:05:54.673Z,100461.76171875
2022-11-25T05:06:54.666Z,100462.11328125
2022-11-25T05:07:55.142Z,100460.59765625
2022-11-25T05:08:54.767Z,100458.90234375
2022-11-25T05:09:54.668Z,100466.21484375
2022-11-25T05:10:57.701Z,100463.84765625
2022-11-25T05:11:54.842Z,100462.546875
2022-11-25T05:12:54.777Z,100462.11328125
2022-11-25T05:13:54.740Z,100467.6875
2022-11-25T05:14:54.835Z,100466.99609375
2022-11-25T05:15:54.764Z,100471.3203125
2022-11-25T05:16:54.805Z,100473.4453125
2022-11-25T05:17:55.109Z,100478.6328125
2022-11-25T05:18:54.880Z,100478.84765625
2022-11-25T05:19:55.041Z,100476.7890625
2022-11-25T05:20:54.747Z,100479.65234375
2022-11-25T05:21:57.672Z,100478.37890625
2022-11-25T05:22:54.878Z,100480.09375
2022-11-25T05:23:55.963Z,100476.9375
2022-11-25T05:24:54.665Z,100476.1484375
2022-11-25T05:25:54.676Z,100479.09765625
2022-11-25T05:26:54.659Z,100479.37890625
2022-11-25T05:27:55.051Z,100481.05078125
2022-11-25T05:28:54.709Z,100479.453125
2022-11-25T05:29:56.403Z,100481.4296875
2022-11-25T05:30:54.866Z,100478.16796875
2022-11-25T05:31:54.671Z,100478.84375
2022-11-25T05:33:00.739Z,100480.74609375
2022-11-25T05:33:54.751Z,100478.734375
2022-11-25T05:34:55.096Z,100478.5546875
2022-11-25T05:35:54.774Z,100473.74609375
2022-11-25T05:36:54.676Z,100473.82421875
2022-11-25T05:37:54.831Z,100474.5859375
2022-11-25T05:38:54.646Z,100465.69921875
2022-11-25T05:39:54.676Z,100460.94921875
2022-11-25T05:40:54.672Z,100461.96875
2022-11-25T05:41:54.669Z,100461.64453125
2022-11-25T05:42:54.804Z,100459.29296875
2022-11-25T05:43:57.738Z,100458.2578125
2022-11-25T05:44:54.740Z,100464.03515625
2022-11-25T05:45:54.825Z,100464.76953125
2022-11-25T05:46:54.665Z,100466.30859375
2022-11-25T05:47:55.102Z,100464.14453125
2022-11-25T05:48:54.774Z,100462.78515625
2022-11-25T05:49:55.038Z,100466.95703125
2022-11-25T05:50:54.665Z,100466.92578125
2022-11-25T05:51:54.655Z,100470.08984375
2022-11-25T05:52:54.751Z,100468.77734375
2022-11-25T05:53:54.659Z,100469.01953125
2022-11-25T05:54:57.397Z,100463.5625
2022-11-25T05:55:54.722Z,100466.92578125
2022-11-25T05:56:54.661Z,100465.29296875
2022-11-25T05:57:55.097Z,100466.84375
2022-11-25T05:58:54.774Z,100468.3984375
2022-11-25T05:59:57.675Z,100471.5859375
2022-11-25T06:00:54.722Z,100466.765625
2022-11-25T06:01:54.738Z,100469.1953125
2022-11-25T06:02:55.249Z,100472.546875
2022-11-25T06:03:54.875Z,100480.515625
2022-11-25T06:04:55.220Z,100479.11328125
2022-11-25T06:05:57.661Z,100475.50390625
2022-11-25T06:06:54.751Z,100477.52734375
2022-11-25T06:07:55.241Z,100480.875
2022-11-25T06:08:54.761Z,100480.0390625
2022-11-25T06:09:57.657Z,100487.95703125
2022-11-25T06:10:54.675Z,100491.9765625
2022-11-25T06:11:54.726Z,100493.3671875
2022-11-25T06:12:55.099Z,100494.99609375
2022-11-25T06:13:54.752Z,100493.79296875
2022-11-25T06:14:54.750Z,100495.359375
2022-11-25T06:15:54.769Z,100493.08203125
2022-11-25T06:16:54.663Z,100495.7578125
2022-11-25T06:17:55.095Z,100494.23046875
2022-11-25T06:18:54.661Z,100491.34375
2022-11-25T06:19:55.103Z,100487.9453125
2022-11-25T06:20:54.744Z,100496.71875
2022-11-25T06:21:57.702Z,100496.359375
2022-11-25T06:22:55.138Z,100495.75
2022-11-25T06:23:54.666Z,100502.1875
2022-11-25T06:25:00.319Z,100504.3125
2022-11-25T06:25:54.676Z,100507.73828125
2022-11-25T06:26:54.668Z,100506.0234375
2022-11-25T06:28:12.276Z,100507.78125
2022-11-25T06:28:54.807Z,100511.390625
2022-11-25T06:29:54.782Z,100515.0625
2022-11-25T06:30:54.681Z,100515.7421875
2022-11-25T06:31:54.655Z,100507.43359375
2022-11-25T06:33:00.741Z,100513.87890625
2022-11-25T06:33:54.742Z,100504.93359375
2022-11-25T06:34:55.098Z,100501.90234375
2022-11-25T06:35:54.718Z,100507.6875
2022-11-25T06:36:54.675Z,100511.625
2022-11-25T06:37:55.119Z,100512.140625
2022-11-25T06:38:54.671Z,100513.1640625
2022-11-25T06:39:54.648Z,100513.375
2022-11-25T06:40:57.770Z,100518.265625
2022-11-25T06:41:54.684Z,100517.8828125
2022-11-25T06:42:55.095Z,100511.6015625
2022-11-25T06:43:57.803Z,100507.20703125
2022-11-25T06:44:54.749Z,100506.3671875
2022-11-25T06:45:54.830Z,100516.41015625
2022-11-25T06:46:54.861Z,100515.88671875
2022-11-25T06:47:55.103Z,100523.671875
2022-11-25T06:48:54.750Z,100527.08984375
2022-11-25T06:49:54.806Z,100522.26953125
2022-11-25T06:50:54.675Z,100525.57421875
2022-11-25T06:51:54.658Z,100526.44921875
2022-11-25T06:52:55.099Z,100528.48046875
2022-11-25T06:53:54.742Z,100531.53125
2022-11-25T06:54:57.638Z,100533.8984375
2022-11-25T06:55:54.765Z,100533.6171875
2022-11-25T06:56:54.695Z,100531.30859375
2022-11-25T06:58:08.416Z,100532.73046875
2022-11-25T06:58:54.883Z,100536.41015625
2022-11-25T06:59:54.747Z,100536.33984375
2022-11-25T07:00:54.684Z,100536.23046875
2022-11-25T07:01:54.799Z,100535.921875
2022-11-25T07:02:55.129Z,100540.6640625
2022-11-25T07:03:54.753Z,100545.3046875
2022-11-25T07:04:55.124Z,100540.21875
2022-11-25T07:05:57.696Z,100546.27734375
2022-11-25T07:06:54.734Z,100543.3515625
2022-11-25T07:07:55.180Z,100544.34765625
2022-11-25T07:08:54.652Z,100545.234375
2022-11-25T07:09:54.776Z,100539.546875
2022-11-25T07:10:54.671Z,100540.515625
2022-11-25T07:11:54.743Z,100540.7265625
2022-11-25T07:12:55.112Z,100537.77734375
2022-11-25T07:13:54.875Z,100539.63671875
2022-11-25T07:14:54.664Z,100544.24609375
2022-11-25T07:15:54.899Z,100534.87109375
2022-11-25T07:16:54.653Z,100531.5234375
2022-11-25T07:17:55.034Z,100534.41015625
2022-11-25T07:18:54.759Z,100531.29296875
2022-11-25T07:19:55.090Z,100531.140625
2022-11-25T07:20:54.755Z,100530.98046875
2022-11-25T07:21:57.671Z,100537.65625
2022-11-25T07:22:55.032Z,100533.97265625
2022-11-25T07:23:54.770Z,100532.56640625
2022-11-25T07:24:54.687Z,100533.63671875
2022-11-25T07:25:54.676Z,100535.296875
2022-11-25T07:26:54.683Z,100536.8046875
2022-11-25T07:27:55.072Z,100537.5234375
2022-11-25T07:28:54.673Z,100537.74609375
2022-11-25T07:30:19.177Z,100546.50390625
2022-11-25T07:31:22.740Z,100545
2022-11-25T07:31:54.752Z,100545.99609375
2022-11-25T07:33:00.792Z,100542.42578125
2022-11-25T07:33:54.668Z,100545.5625
2022-11-25T07:34:54.674Z,100540.96875
2022-11-25T07:35:54.652Z,100544.9921875
2022-11-25T07:36:54.739Z,100548.2890625
2022-11-25T07:37:55.182Z,100547.1328125
2022-11-25T07:38:54.668Z,100548.56640625
2022-11-25T07:39:54.670Z,100546.41015625
2022-11-25T07:40:54.733Z,100541.37109375
2022-11-25T07:41:54.756Z,100545.3125
2022-11-25T07:42:55.077Z,100544.80859375
2022-11-25T07:43:57.881Z,100544.63671875
2022-11-25T07:44:54.830Z,100544.37109375
2022-11-25T07:45:54.745Z,100544.69921875
2022-11-25T07:46:54.730Z,100545.515625
2022-11-25T07:47:55.147Z,100547.921875
2022-11-25T07:48:54.883Z,100546.9609375
2022-11-25T07:49:55.034Z,100549.85546875
2022-11-25T07:50:54.653Z,100549.375
2022-11-25T07:51:54.789Z,100552.60546875
2022-11-25T07:52:55.150Z,100556.9140625
2022-11-25T07:53:54.640Z,100557.5546875
2022-11-25T07:54:57.656Z,100560
2022-11-25T07:55:54.752Z,100559.7734375
2022-11-25T07:56:54.674Z,100559.453125
2022-11-25T07:57:55.033Z,100560.76953125
2022-11-25T07:58:54.656Z,100559.9140625
2022-11-25T07:59:54.670Z,100559.4765625
2022-11-25T08:00:54.719Z,100563.0703125
2022-11-25T08:01:54.790Z,100564.46484375
2022-11-25T08:02:55.103Z,100566.02734375
2022-11-25T08:03:54.748Z,100567.91796875
2022-11-25T08:04:55.106Z,100564.3359375
2022-11-25T08:05:57.714Z,100566.11328125
2022-11-25T08:06:54.750Z,100563.0703125
2022-11-25T08:07:55.064Z,100562.36328125
2022-11-25T08:08:54.698Z,100567.15625
2022-11-25T08:09:54.662Z,100568.51953125
2022-11-25T08:10:54.675Z,100570.11328125
2022-11-25T08:11:57.841Z,100570.640625
2022-11-25T08:12:56.064Z,100573.3984375
2022-11-25T08:13:54.661Z,100574.44921875
2022-11-25T08:14:54.657Z,100574.12890625
2022-11-25T08:15:54.727Z,100576.9453125
2022-11-25T08:16:54.669Z,100576.99609375
2022-11-25T08:17:54.679Z,100580.44921875
2022-11-25T08:18:55.104Z,100576.5234375
2022-11-25T08:19:55.032Z,100574.1015625
2022-11-25T08:20:54.744Z,100571.88671875
2022-11-25T08:21:54.675Z,100575.796875
2022-11-25T08:22:57.719Z,100576.515625
2022-11-25T08:23:55.155Z,100578.9453125
2022-11-25T08:24:54.776Z,100581.375
2022-11-25T08:25:54.677Z,100583.859375
2022-11-25T08:26:54.874Z,100584.125
2022-11-25T08:27:54.676Z,100581.1171875
2022-11-25T08:28:55.028Z,100580.12890625
2022-11-25T08:29:54.665Z,100576.90234375
2022-11-25T08:30:54.907Z,100577.99609375
2022-11-25T08:31:54.647Z,100576.546875
2022-11-25T08:32:54.658Z,100575.34375
2022-11-25T08:33:55.124Z,100574.578125
2022-11-25T08:34:55.035Z,100579.32421875
2022-11-25T08:35:54.755Z,100574.80859375
2022-11-25T08:36:54.669Z,100576.2890625
2022-11-25T08:37:54.678Z,100576.828125
2022-11-25T08:39:00.787Z,100577.8515625
2022-11-25T08:39:55.130Z,100577.96484375
2022-11-25T08:40:54.671Z,100582.56640625
2022-11-25T08:41:54.649Z,100579.69921875
2022-11-25T08:42:54.673Z,100586.53125
2022-11-25T08:43:55.264Z,100584.2109375
2022-11-25T08:44:54.671Z,100588.765625
2022-11-25T08:45:54.812Z,100593.48828125
2022-11-25T08:46:54.706Z,100590.390625
2022-11-25T08:47:54.658Z,100591.328125
2022-11-25T08:48:55.111Z,100591.2734375
2022-11-25T08:50:00.788Z,100594.03125
2022-11-25T08:50:54.776Z,100590.17578125
2022-11-25T08:51:54.658Z,100591.16015625
2022-11-25T08:52:54.774Z,100592.03125
2022-11-25T08:53:55.113Z,100592.53515625
2022-11-25T08:54:54.878Z,100593.94140625
2022-11-25T08:55:54.683Z,100594.9140625
2022-11-25T08:56:54.807Z,100595.6640625
2022-11-25T08:57:54.796Z,100598.3359375
2022-11-25T08:58:55.108Z,100597.51171875
2022-11-25T08:59:54.732Z,100596.00390625
2022-11-25T09:00:57.709Z,100592.19921875
2022-11-25T09:01:54.772Z,100595.1875
2022-11-25T09:02:54.680Z,100594.58203125
2022-11-25T09:03:55.028Z,100598.421875
2022-11-25T09:04:55.128Z,100595.5234375
2022-11-25T09:05:54.782Z,100597.76171875
2022-11-25T09:06:54.689Z,100595.22265625
2022-11-25T09:07:54.774Z,100594.8984375
2022-11-25T09:08:55.100Z,100596.0859375
2022-11-25T09:09:54.748Z,100595.4453125
2022-11-25T09:10:54.717Z,100598.890625
2022-11-25T09:11:57.938Z,100598.7890625
2022-11-25T09:12:54.756Z,100597.98046875
2022-11-25T09:13:55.147Z,100602.328125
2022-11-25T09:14:54.885Z,100604.015625
2022-11-25T09:15:54.833Z,100602.7734375
2022-11-25T09:16:54.676Z,100603.60546875
2022-11-25T09:17:54.674Z,100606.109375
2022-11-25T09:18:56.390Z,100610.6171875
2022-11-25T09:19:55.033Z,100613.8203125
2022-11-25T09:20:54.756Z,100611.10546875
2022-11-25T09:21:54.674Z,100614.25390625
2022-11-25T09:22:57.705Z,100619.89453125
2022-11-25T09:23:55.105Z,100624.7890625
2022-11-25T09:24:54.754Z,100623.08984375
2022-11-25T09:25:54.673Z,100624.76171875
2022-11-25T09:26:54.683Z,100632.75
2022-11-25T09:27:54.694Z,100625.44921875
2022-11-25T09:28:55.032Z,100633.47265625
2022-11-25T09:29:54.773Z,100628.5
2022-11-25T09:30:54.729Z,100635.6796875
2022-11-25T09:31:55.247Z,100631.98828125
2022-11-25T09:32:54.678Z,100631.42578125
2022-11-25T09:33:55.029Z,100635.25390625
2022-11-25T09:34:55.094Z,100631.3046875
2022-11-25T09:35:54.666Z,100636.703125
2022-11-25T09:36:54.665Z,100636.703125
2022-11-25T09:37:54.658Z,100641.359375
2022-11-25T09:39:00.799Z,100642.8359375
2022-11-25T09:39:54.774Z,100646.1875
2022-11-25T09:40:54.772Z,100650.53125
2022-11-25T09:41:54.649Z,100645.90625
2022-11-25T09:42:54.668Z,100646.54296875
2022-11-25T09:43:55.025Z,100643.44140625
2022-11-25T09:44:54.675Z,100643.18359375
2022-11-25T09:45:54.681Z,100641.03515625
2022-11-25T09:46:54.738Z,100647.3046875
2022-11-25T09:47:57.836Z,100647.33984375
2022-11-25T09:48:55.799Z,100642.0859375
2022-11-25T09:50:00.774Z,100641.5
2022-11-25T09:50:54.864Z,100642.53515625
2022-11-25T09:51:54.675Z,100639.703125
2022-11-25T09:52:54.680Z,100644.29296875
2022-11-25T09:53:55.044Z,100644.60546875
2022-11-25T09:54:54.730Z,100644.7734375
2022-11-25T09:56:01.201Z,100648.61328125
2022-11-25T09:56:54.660Z,100651.0078125
2022-11-25T09:57:59.268Z,100650.39453125
2022-11-25T09:58:54.674Z,100650.90234375
2022-11-25T09:59:54.678Z,100652.6484375